Time;durP1;ratioP1;P1;durP2;ratioP2;P2;SDS_P1;SDS_P2;PMS_P1;PMS_P2;Temp;Humidity;BMP_temperature;BMP_pressure;BME280_temperature;BME280_humidity;BME280_pressure;Samples;Min_cycle;Max_cycle;Signal;HPM_P1;HPM_P2
2022/09/17 00:00:43;;;;;;;5.28;0.60;;;;;;;7.96;100.00;98928.72;4986992;28;20038;-96
2022/09/17 00:03:10;;;;;;;4.78;0.70;;;;;;;7.81;100.00;98922.59;4992967;28;20065;-96
2022/09/17 00:05:36;;;;;;;4.38;0.70;;;;;;;7.98;100.00;98934.81;4990321;28;20026;-96
2022/09/17 00:08:04;;;;;;;4.25;0.80;;;;;;;8.00;100.00;98935.66;4993720;28;20030;-96
2022/09/17 00:10:30;;;;;;;3.45;0.60;;;;;;;8.40;100.00;98927.16;4989346;28;20061;-96
2022/09/17 00:12:56;;;;;;;4.65;0.80;;;;;;;8.69;100.00;98933.28;4991528;28;20030;-96
2022/09/17 00:15:22;;;;;;;4.55;0.70;;;;;;;8.30;100.00;98929.72;4983653;28;20550;-96
2022/09/17 00:17:53;;;;;;;4.00;0.65;;;;;;;8.31;100.00;98930.56;4991806;28;20086;-96
2022/09/17 00:20:20;;;;;;;5.30;0.80;;;;;;;8.86;100.00;98930.69;4988704;28;20097;-96
2022/09/17 00:22:46;;;;;;;6.13;0.68;;;;;;;8.86;100.00;98927.25;4993965;28;20022;-96
2022/09/17 00:25:11;;;;;;;3.83;0.70;;;;;;;8.90;100.00;98925.53;4987517;28;20088;-94
2022/09/17 00:27:37;;;;;;;4.03;0.50;;;;;;;8.95;100.00;98934.16;4988616;28;20034;-96
2022/09/17 00:30:03;;;;;;;3.78;0.50;;;;;;;8.87;100.00;98928.97;4990174;28;20101;-96
2022/09/17 00:32:29;;;;;;;5.13;0.60;;;;;;;9.01;100.00;98923.78;4992307;28;20038;-96
2022/09/17 00:34:54;;;;;;;4.97;0.90;;;;;;;8.86;100.00;98932.44;4991133;28;20113;-96
2022/09/17 00:37:22;;;;;;;3.92;0.60;;;;;;;9.03;100.00;98927.25;4993801;28;20049;-95
2022/09/17 00:39:47;;;;;;;5.68;0.70;;;;;;;8.93;100.00;98925.50;4990728;28;20096;-96
2022/09/17 00:42:14;;;;;;;5.47;0.75;;;;;;;9.03;100.00;98916.84;4990118;28;20030;-96
2022/09/17 00:44:52;;;;;;;4.80;0.73;;;;;;;9.04;100.00;98921.19;4990983;28;20113;-96
2022/09/17 00:48:10;;;;;;;4.25;0.60;;;;;;;9.02;100.00;98925.53;4988303;28;20042;-96
2022/09/17 00:50:43;;;;;;;5.93;0.82;;;;;;;8.99;100.00;98920.31;4987096;28;20133;-95
2022/09/17 00:53:13;;;;;;;3.60;0.73;;;;;;;8.99;100.00;98917.69;5001815;28;20057;-96
2022/09/17 00:55:44;;;;;;;2.95;0.55;;;;;;;9.15;100.00;98924.63;5003811;28;20042;-96
2022/09/17 00:58:17;;;;;;;3.28;0.70;;;;;;;9.15;100.00;98915.97;4987795;28;20108;-96
2022/09/17 01:00:43;;;;;;;;;;;;;;;9.08;100.00;98922.06;4990390;28;20038;-95
2022/09/17 01:03:08;;;;;;;3.40;0.60;;;;;;;9.05;100.00;98915.13;4989665;28;21466;-96
2022/09/17 01:06:08;;;;;;;5.35;0.70;;;;;;;9.11;100.00;98922.03;4990862;28;20446;-96
2022/09/17 01:08:49;;;;;;;3.05;0.68;;;;;;;9.12;100.00;98908.19;4988720;28;20030;-94
2022/09/17 01:11:17;;;;;;;3.63;0.70;;;;;;;9.05;100.00;98917.72;4988616;28;20026;-96
2022/09/17 01:14:08;;;;;;;4.68;0.80;;;;;;;8.85;100.00;98905.59;4986827;28;20030;-96
2022/09/17 01:16:47;;;;;;;4.45;0.80;;;;;;;8.90;100.00;98912.53;4986701;28;20084;-96
2022/09/17 01:19:28;;;;;;;4.05;0.57;;;;;;;8.96;100.00;98907.31;4990793;28;20129;-96
2022/09/17 01:22:07;;;;;;;4.35;0.70;;;;;;;8.78;100.00;98905.56;4990504;28;20030;-96
2022/09/17 01:24:54;;;;;;;3.97;0.63;;;;;;;8.85;100.00;98910.78;4988449;28;20026;-96
2022/09/17 01:27:54;;;;;;;5.63;0.90;;;;;;;8.90;100.00;98908.16;4988795;28;20034;-96
2022/09/17 01:30:44;;;;;;;4.18;0.77;;;;;;;8.38;100.00;98907.22;4987122;28;20479;-96
2022/09/17 01:33:23;;;;;;;4.57;0.55;;;;;;;7.69;100.00;98904.38;5009301;28;20037;-96
2022/09/17 01:36:05;;;;;;;5.32;0.80;;;;;;;7.69;100.00;98900.03;4984555;28;20081;-96
2022/09/17 01:39:10;;;;;;;3.55;0.65;;;;;;;7.56;100.00;98902.56;4991878;28;20041;-96
2022/09/17 01:42:02;;;;;;;3.50;0.70;;;;;;;7.89;100.00;98898.41;4967057;28;20045;-96
2022/09/17 01:44:52;;;;;;;4.20;0.70;;;;;;;7.85;100.00;98908.78;4964582;28;20031;-96
2022/09/17 01:47:22;;;;;;;5.13;0.60;;;;;;;8.00;100.00;98914.88;4949611;28;20044;-96
2022/09/17 01:49:54;;;;;;;2.45;0.47;;;;;;;8.09;100.00;98914.06;4968544;28;20117;-96
2022/09/17 01:52:20;;;;;;;3.30;0.60;;;;;;;8.02;100.00;98913.19;4948652;28;20051;-96
2022/09/17 01:54:49;;;;;;;2.78;0.50;;;;;;;8.16;100.00;98908.88;4952718;28;20467;-96
2022/09/17 01:57:32;;;;;;;4.32;0.60;;;;;;;8.15;100.00;98903.69;4949643;28;20545;-96
2022/09/17 02:00:10;;;;;;;3.22;0.60;;;;;;;8.02;100.00;98905.38;4946391;28;20130;-96
2022/09/17 02:02:44;;;;;;;2.35;0.50;;;;;;;7.97;100.00;98913.13;4952054;28;20471;-96
2022/09/17 02:05:12;;;;;;;;;;;;;;;8.22;100.00;98907.19;4947863;29;20043;-94
2022/09/17 02:07:50;;;;;;;1.42;0.40;;;;;;;8.20;100.00;98907.19;4962256;28;20417;-96
2022/09/17 02:10:21;;;;;;;1.48;0.40;;;;;;;8.27;100.00;98908.06;4948837;28;20037;-96
2022/09/17 02:12:55;;;;;;;4.18;0.60;;;;;;;8.34;100.00;98908.06;4956241;28;20043;-96
2022/09/17 02:15:28;;;;;;;2.75;0.43;;;;;;;8.39;100.00;98913.25;4955897;28;20069;-96
2022/09/17 02:17:59;;;;;;;3.97;0.60;;;;;;;8.09;100.00;98901.94;4961052;28;20121;-96
2022/09/17 02:20:37;;;;;;;7.65;0.90;;;;;;;8.07;100.00;98901.06;4986984;28;20065;-96
2022/09/17 02:23:10;;;;;;;4.70;0.57;;;;;;;8.05;100.00;98901.94;4990563;28;20030;-96
2022/09/17 02:25:41;;;;;;;;;;;;;;;8.26;100.00;98911.53;4991978;28;20165;-94
2022/09/17 02:28:38;;;;;;;1.75;0.60;;;;;;;8.14;100.00;98915.81;4989116;28;19957;-96
2022/09/17 02:31:04;;;;;;;4.25;0.70;;;;;;;8.25;100.00;98909.78;4991302;28;20038;-96
2022/09/17 02:33:34;;;;;;;2.55;0.60;;;;;;;8.09;100.00;98907.13;4990091;28;20093;-96
2022/09/17 02:36:00;;;;;;;4.07;0.52;;;;;;;8.13;100.00;98913.22;4987064;28;20058;-96
2022/09/17 02:38:28;;;;;;;2.42;0.55;;;;;;;7.90;100.00;98900.16;4993710;28;20022;-96
2022/09/17 02:41:03;;;;;;;2.85;0.68;;;;;;;7.78;100.00;98911.31;4989799;28;20042;-96
2022/09/17 02:43:55;;;;;;;4.00;0.47;;;;;;;7.23;100.00;98909.31;4985702;28;20031;-96
2022/09/17 02:46:27;;;;;;;2.35;0.52;;;;;;;7.40;100.00;98907.66;4991952;28;20030;-96
2022/09/17 02:49:16;;;;;;;2.85;0.60;;;;;;;7.56;100.00;98905.16;4990895;28;20026;-96
2022/09/17 02:52:24;;;;;;;3.08;0.52;;;;;;;7.55;100.00;98903.44;4984331;28;20034;-96
2022/09/17 02:54:56;;;;;;;2.65;0.60;;;;;;;7.60;100.00;98912.09;4950554;28;20076;-96
2022/09/17 02:57:50;;;;;;;3.83;0.50;;;;;;;7.57;100.00;98904.31;4988186;28;20045;-96
2022/09/17 03:00:20;;;;;;;8.20;0.75;;;;;;;7.71;100.00;98914.75;4987212;28;20061;-96
2022/09/17 03:02:52;;;;;;;2.65;0.55;;;;;;;7.75;100.00;98906.13;4989716;28;20053;-96
2022/09/17 03:05:21;;;;;;;1.65;0.40;;;;;;;7.81;100.00;98917.41;5003186;28;20026;-95
2022/09/17 03:07:46;;;;;;;3.45;0.65;;;;;;;7.71;100.00;98913.06;4985835;28;20026;-96
2022/09/17 03:10:12;;;;;;;3.33;0.65;;;;;;;7.63;100.00;98917.34;4984859;28;20030;-96
2022/09/17 03:12:39;;;;;;;4.10;0.57;;;;;;;7.92;100.00;98913.97;4986060;28;20501;-96
2022/09/17 03:15:06;;;;;;;4.95;0.98;;;;;;;7.90;100.00;98906.19;4988015;28;20235;-96
2022/09/17 03:17:35;;;;;;;3.78;0.50;;;;;;;8.11;100.00;98918.38;4986384;28;20072;-96
2022/09/17 03:20:01;;;;;;;3.65;0.77;;;;;;;8.19;100.00;98911.47;4989526;28;20042;-96
2022/09/17 03:22:26;;;;;;;4.88;0.50;;;;;;;8.24;100.00;98910.63;4999652;28;20232;-96
2022/09/17 03:24:52;;;;;;;5.78;0.98;;;;;;;8.23;100.00;98911.53;4988548;28;20037;-95
2022/09/17 03:27:17;;;;;;;5.00;0.65;;;;;;;8.20;100.00;98910.63;4985509;28;20066;-96
2022/09/17 03:29:43;;;;;;;4.15;0.50;;;;;;;8.27;100.00;98913.25;4984238;28;20418;-96
2022/09/17 03:32:11;;;;;;;4.72;0.60;;;;;;;8.33;100.00;98908.06;4985038;28;20033;-96
2022/09/17 03:34:39;;;;;;;2.55;0.40;;;;;;;8.35;100.00;98911.53;4990674;28;20030;-96
2022/09/17 03:37:05;;;;;;;3.22;0.70;;;;;;;8.62;100.00;98910.75;4986141;28;20129;-96
2022/09/17 03:39:31;;;;;;;1.70;0.40;;;;;;;8.41;100.00;98910.69;4983781;28;20045;-96
2022/09/17 03:41:56;;;;;;;3.15;0.55;;;;;;;8.35;100.00;98911.53;4983840;28;20022;-96
2022/09/17 03:44:22;;;;;;;3.50;0.73;;;;;;;8.42;100.00;98908.09;4988752;28;20395;-96
2022/09/17 03:46:48;;;;;;;5.07;0.73;;;;;;;8.39;100.00;98902.88;4987500;28;20026;-96
2022/09/17 03:49:14;;;;;;;5.65;0.60;;;;;;;8.44;100.00;98905.50;4990335;28;20027;-96
2022/09/17 03:51:40;;;;;;;4.07;0.50;;;;;;;8.44;100.00;98914.16;4991515;28;20037;-96
2022/09/17 03:54:06;;;;;;;2.55;0.50;;;;;;;8.47;100.00;98909.00;4990855;28;20574;-96
2022/09/17 03:56:32;;;;;;;3.92;0.43;;;;;;;8.57;100.00;98909.00;4992775;28;20042;-96
2022/09/17 03:58:59;;;;;;;2.70;0.50;;;;;;;8.50;100.00;98911.63;4988625;28;20038;-96
2022/09/17 04:01:25;;;;;;;2.50;0.57;;;;;;;8.53;100.00;98914.22;5004798;28;20032;-96
2022/09/17 04:03:51;;;;;;;3.33;0.55;;;;;;;8.61;100.00;98919.41;4992515;28;20030;-96
2022/09/17 04:06:17;;;;;;;5.43;0.50;;;;;;;8.72;100.00;98924.63;5006267;28;20029;-96
2022/09/17 04:08:42;;;;;;;3.17;0.50;;;;;;;8.43;100.00;98922.81;4991086;28;20029;-96
2022/09/17 04:11:11;;;;;;;3.53;0.50;;;;;;;8.46;100.00;98909.00;4989151;28;20034;-96
2022/09/17 04:13:36;;;;;;;3.00;0.50;;;;;;;8.37;100.00;98909.81;4992140;28;20022;-96
2022/09/17 04:16:02;;;;;;;2.17;0.30;;;;;;;8.26;100.00;98916.72;4991794;28;20034;-96
2022/09/17 04:18:28;;;;;;;1.55;0.45;;;;;;;8.20;100.00;98907.19;4990470;28;20030;-96
2022/09/17 04:20:57;;;;;;;1.42;0.43;;;;;;;8.27;100.00;98916.72;4990392;28;20036;-96
2022/09/17 04:23:23;;;;;;;3.08;0.55;;;;;;;8.34;100.00;98910.66;4995705;28;20441;-96
2022/09/17 04:25:48;;;;;;;3.22;0.60;;;;;;;8.26;100.00;98914.13;4988546;28;20034;-96
2022/09/17 04:28:14;;;;;;;2.83;0.50;;;;;;;8.25;100.00;98904.59;4991533;28;20046;-96
2022/09/17 04:30:42;;;;;;;2.53;0.30;;;;;;;8.43;100.00;98898.56;4987036;28;20041;-96
2022/09/17 04:33:08;;;;;;;2.72;0.40;;;;;;;8.22;100.00;98909.78;4989964;28;20053;-96
2022/09/17 04:35:35;;;;;;;2.42;0.50;;;;;;;8.28;100.00;98897.69;4993678;28;20034;-96
2022/09/17 04:38:01;;;;;;;2.20;0.60;;;;;;;8.33;100.00;98902.88;5004264;28;20047;-96
2022/09/17 04:40:27;;;;;;;1.42;0.30;;;;;;;8.25;100.00;98895.03;4991972;28;20114;-96
2022/09/17 04:42:54;;;;;;;1.83;0.50;;;;;;;8.16;100.00;98895.03;4980767;28;20117;-96
2022/09/17 04:45:21;;;;;;;3.95;0.68;;;;;;;8.24;100.00;98901.13;4987048;28;20030;-96
2022/09/17 04:47:46;;;;;;;1.35;0.30;;;;;;;8.20;100.00;98904.59;4987071;28;20061;-96
2022/09/17 04:50:12;;;;;;;3.10;0.40;;;;;;;8.15;100.00;98914.94;4991002;28;20057;-96
2022/09/17 04:52:42;;;;;;;2.13;0.40;;;;;;;8.16;100.00;98908.88;5004616;28;20387;-96
2022/09/17 04:55:09;;;;;;;1.30;0.30;;;;;;;8.05;100.00;98902.78;4992045;28;20085;-96
2022/09/17 04:57:34;;;;;;;0.32;0.20;;;;;;;8.16;100.00;98905.44;4991720;28;20026;-96
2022/09/17 05:00:00;;;;;;;1.75;0.60;;;;;;;8.01;100.00;98909.69;4986523;28;20052;-96
2022/09/17 05:02:26;;;;;;;1.52;0.30;;;;;;;8.08;100.00;98910.59;4990483;28;20081;-96
2022/09/17 05:04:51;;;;;;;4.55;0.60;;;;;;;8.14;100.00;98907.13;4992053;28;20498;-96
2022/09/17 05:07:16;;;;;;;4.28;0.60;;;;;;;8.01;100.00;98907.09;4990728;28;20030;-96
2022/09/17 05:09:42;;;;;;;2.88;0.40;;;;;;;8.02;100.00;98914.03;4987967;28;20483;-96
2022/09/17 05:12:08;;;;;;;1.55;0.40;;;;;;;7.99;100.00;98910.56;4989831;28;20072;-96
2022/09/17 05:14:34;;;;;;;1.50;0.40;;;;;;;8.00;100.00;98914.88;4988694;28;20033;-95
2022/09/17 05:16:59;;;;;;;2.25;0.47;;;;;;;8.03;100.00;98905.38;4993363;28;20026;-96
2022/09/17 05:19:25;;;;;;;1.60;0.40;;;;;;;7.98;100.00;98911.44;4991746;28;20038;-96
2022/09/17 05:21:50;;;;;;;2.22;0.40;;;;;;;7.93;100.00;98900.16;4990999;28;20025;-96
2022/09/17 05:24:16;;;;;;;2.15;0.50;;;;;;;7.95;100.00;98911.44;4991194;28;20031;-96
2022/09/17 05:26:41;;;;;;;1.73;0.43;;;;;;;8.00;100.00;98905.38;4989025;28;20077;-96
2022/09/17 05:29:07;;;;;;;2.25;0.20;;;;;;;7.96;100.00;98897.56;4987063;28;20498;-96
2022/09/17 05:31:32;;;;;;;2.65;0.52;;;;;;;7.82;100.00;98905.28;4990789;28;20038;-96
2022/09/17 05:33:59;;;;;;;5.38;0.60;;;;;;;7.90;100.00;98901.00;4992274;28;20367;-96
2022/09/17 05:36:24;;;;;;;3.28;0.50;;;;;;;7.93;100.00;98905.34;4989332;28;20054;-96
2022/09/17 05:38:50;;;;;;;2.47;0.40;;;;;;;7.82;100.00;98903.59;4988377;28;20022;-96
2022/09/17 05:41:17;;;;;;;3.35;0.50;;;;;;;7.83;100.00;98907.88;4988175;28;20484;-96
2022/09/17 05:43:43;;;;;;;3.97;0.43;;;;;;;7.81;100.00;98908.78;4986492;28;20109;-96
2022/09/17 05:46:09;;;;;;;2.90;0.60;;;;;;;7.85;100.00;98908.78;4989398;28;20673;-96
2022/09/17 05:48:35;;;;;;;1.20;0.47;;;;;;;7.93;100.00;98902.75;4990015;28;20036;-96
2022/09/17 05:51:01;;;;;;;3.38;0.60;;;;;;;8.00;100.00;98914.88;4990251;28;20026;-96
2022/09/17 05:53:26;;;;;;;3.53;0.60;;;;;;;7.92;100.00;98907.09;4986860;28;20970;-96
2022/09/17 05:55:56;;;;;;;1.17;0.35;;;;;;;7.81;100.00;98919.16;4989776;28;20038;-96
2022/09/17 05:58:22;;;;;;;4.47;0.52;;;;;;;8.00;100.00;98917.47;5003930;28;20033;-96
2022/09/17 06:00:48;;;;;;;1.77;0.45;;;;;;;7.98;100.00;98916.63;4987361;28;20026;-95
2022/09/17 06:03:16;;;;;;;2.80;0.35;;;;;;;8.08;100.00;98925.31;4987281;28;20042;-96
2022/09/17 06:05:42;;;;;;;1.38;0.35;;;;;;;8.09;100.00;98919.28;4987113;28;20927;-96
2022/09/17 06:08:09;;;;;;;2.47;0.57;;;;;;;7.92;100.00;98929.56;4986951;28;20133;-96
2022/09/17 06:10:37;;;;;;;1.65;0.40;;;;;;;8.07;100.00;98923.56;4988324;28;20028;-96
2022/09/17 06:13:03;;;;;;;1.88;0.40;;;;;;;7.72;100.00;98926.88;4988421;28;20041;-96
2022/09/17 06:15:29;;;;;;;1.10;0.30;;;;;;;7.76;100.00;98921.72;4986897;28;20343;-96
2022/09/17 06:17:55;;;;;;;2.88;0.60;;;;;;;7.84;100.00;98924.34;4989310;28;20461;-96
2022/09/17 06:20:21;;;;;;;0.30;0.20;;;;;;;7.78;100.00;98925.19;4991347;28;20056;-96
2022/09/17 06:22:47;;;;;;;4.43;0.65;;;;;;;7.79;100.00;98916.53;4991867;28;20022;-95
2022/09/17 06:25:13;;;;;;;1.40;0.38;;;;;;;7.95;100.00;98909.69;4991186;28;20111;-96
2022/09/17 06:27:40;;;;;;;3.72;0.52;;;;;;;8.09;100.00;98912.34;4989912;28;20042;-94
2022/09/17 06:30:07;;;;;;;3.75;0.50;;;;;;;8.14;100.00;98928.81;4990140;28;20084;-95
2022/09/17 06:32:33;;;;;;;3.80;0.60;;;;;;;8.06;100.00;98922.72;4988588;28;20054;-96
2022/09/17 06:35:02;;;;;;;1.10;0.30;;;;;;;8.10;100.00;98928.78;4991581;28;20129;-96
2022/09/17 06:37:29;;;;;;;1.40;0.40;;;;;;;8.17;100.00;98927.97;4992002;28;20057;-94
2022/09/17 06:39:55;;;;;;;1.63;0.40;;;;;;;8.19;100.00;98934.88;4989115;28;20029;-96
2022/09/17 06:42:21;;;;;;;4.53;0.73;;;;;;;8.20;100.00;98933.16;4994493;28;20096;-94
2022/09/17 06:44:47;;;;;;;3.50;0.55;;;;;;;8.15;100.00;98937.47;4988863;28;20467;-94
2022/09/17 06:47:12;;;;;;;4.15;0.70;;;;;;;8.19;100.00;98936.59;4988488;28;20038;-95
2022/09/17 06:49:39;;;;;;;2.65;0.50;;;;;;;8.24;100.00;98939.22;4986698;28;20026;-93
2022/09/17 06:52:04;;;;;;;4.90;0.73;;;;;;;8.20;100.00;98944.41;4986548;28;20046;-93
2022/09/17 06:54:30;;;;;;;5.30;0.70;;;;;;;8.26;100.00;98945.31;4987894;28;20038;-94
2022/09/17 06:56:56;;;;;;;3.72;0.60;;;;;;;8.30;100.00;98941.84;4989040;28;20022;-93
2022/09/17 06:59:22;;;;;;;3.83;0.73;;;;;;;8.50;100.00;98953.22;4990249;28;20042;-94
2022/09/17 07:01:47;;;;;;;4.35;0.75;;;;;;;8.32;100.00;98945.31;4982885;28;21739;-94
2022/09/17 07:04:13;;;;;;;3.00;0.50;;;;;;;8.50;100.00;98952.31;4989968;28;20034;-93
2022/09/17 07:06:39;;;;;;;1.17;0.35;;;;;;;8.58;100.00;98950.59;4989211;28;20038;-96
2022/09/17 07:09:06;;;;;;;1.58;0.40;;;;;;;8.61;100.00;98962.75;4983850;28;20157;-95
2022/09/17 07:11:32;;;;;;;2.00;0.60;;;;;;;8.74;100.00;98954.13;4999574;28;20022;-96
2022/09/17 07:13:58;;;;;;;2.38;0.43;;;;;;;8.67;100.00;98976.63;5005604;28;20158;-96
2022/09/17 07:16:25;;;;;;;2.15;0.55;;;;;;;8.77;100.00;98974.03;4988532;28;20098;-96
2022/09/17 07:18:51;;;;;;;4.40;0.65;;;;;;;8.81;100.00;98962.78;4990827;28;20117;-95
2022/09/17 07:21:17;;;;;;;5.38;0.70;;;;;;;8.90;100.00;98955.00;4993092;28;20499;-96
2022/09/17 07:23:43;;;;;;;2.42;0.55;;;;;;;8.98;100.00;98957.59;4994179;28;20038;-95
2022/09/17 07:26:13;;;;;;;3.72;0.50;;;;;;;9.00;100.00;98953.25;4997277;28;21860;-96
2022/09/17 07:28:40;;;;;;;6.47;0.60;;;;;;;9.16;100.00;98954.16;5000135;28;20031;-96
2022/09/17 07:31:07;;;;;;;3.20;0.57;;;;;;;9.17;100.00;98955.84;5004761;28;20030;-96
2022/09/17 07:33:34;;;;;;;4.30;0.40;;;;;;;9.15;100.00;98947.19;4999748;28;20022;-96
2022/09/17 07:36:03;;;;;;;3.97;0.73;;;;;;;9.30;100.00;98956.75;5005597;28;20105;-96
2022/09/17 07:38:38;;;;;;;1.67;0.45;;;;;;;9.33;100.00;98948.94;5009776;28;20101;-96
2022/09/17 07:41:12;;;;;;;5.00;0.88;;;;;;;9.57;100.00;98948.91;5009757;28;20077;-96
2022/09/17 07:43:56;;;;;;;3.03;0.70;;;;;;;9.62;100.00;98943.66;5008683;28;20030;-96
2022/09/17 07:48:55;;;;;;;2.45;0.57;;;;;;;9.83;100.00;98936.69;4973467;28;20046;-95
2022/09/17 07:51:23;;;;;;;2.28;0.60;;;;;;;9.91;100.00;98938.38;4973965;28;20130;-94
2022/09/17 07:53:53;;;;;;;2.92;0.50;;;;;;;9.85;100.00;98945.34;4962505;28;20054;-95
2022/09/17 07:56:19;;;;;;;2.40;0.73;;;;;;;9.86;100.00;98942.72;4979688;28;20062;-95
2022/09/17 07:58:49;;;;;;;1.13;0.32;;;;;;;9.92;100.00;98947.03;4974514;28;20034;-96
2022/09/17 08:01:16;;;;;;;1.80;0.50;;;;;;;9.83;100.00;98944.50;4975289;28;20034;-95
2022/09/17 08:03:46;;;;;;;1.65;0.45;;;;;;;9.91;100.00;98943.59;4966028;28;20118;-94
2022/09/17 08:06:14;;;;;;;4.72;0.60;;;;;;;10.04;100.00;98949.59;4992997;28;20109;-96
2022/09/17 08:08:40;;;;;;;3.63;0.65;;;;;;;10.27;100.00;98950.38;4965848;28;20022;-96
2022/09/17 08:11:16;;;;;;;4.30;0.73;;;;;;;10.16;100.00;98950.44;4977012;28;20566;-94
2022/09/17 08:13:42;;;;;;;3.05;0.50;;;;;;;10.16;100.00;98938.28;4970566;28;20046;-96
2022/09/17 08:16:11;;;;;;;3.42;0.80;;;;;;;10.43;100.00;98938.19;4974156;28;20043;-95
2022/09/17 08:18:37;;;;;;;3.05;0.57;;;;;;;10.38;100.00;98944.28;4970872;28;20093;-96
2022/09/17 08:21:05;;;;;;;5.93;0.70;;;;;;;10.44;100.00;98950.31;4974629;28;20038;-96
2022/09/17 08:23:32;;;;;;;2.35;0.60;;;;;;;10.28;100.00;98957.34;4982169;28;20027;-94
2022/09/17 08:25:59;;;;;;;1.50;0.50;;;;;;;10.59;100.00;98950.22;4973000;28;20023;-96
2022/09/17 08:28:27;;;;;;;3.45;0.60;;;;;;;10.53;100.00;98952.91;4991360;28;20042;-96
2022/09/17 08:30:53;;;;;;;3.38;0.60;;;;;;;10.35;100.00;98948.66;4988050;28;20051;-95
2022/09/17 08:33:20;;;;;;;3.33;0.52;;;;;;;10.21;100.00;98952.13;4990191;28;20570;-95
2022/09/17 08:35:58;;;;;;;2.78;0.65;;;;;;;10.30;100.00;98961.69;4973616;28;20061;-95
2022/09/17 08:38:24;;;;;;;5.10;0.60;;;;;;;10.29;100.00;98974.72;4976663;28;20093;-96
2022/09/17 08:41:22;;;;;;;6.32;0.85;;;;;;;10.32;100.00;98972.09;4974185;28;20527;-96
2022/09/17 08:44:02;;;;;;;3.97;0.80;;;;;;;10.56;100.00;98974.63;4976271;28;20034;-96
2022/09/17 08:46:32;;;;;;;2.05;0.45;;;;;;;10.42;100.00;98979.00;4976927;28;20034;-96
2022/09/17 08:49:04;;;;;;;3.67;0.70;;;;;;;10.32;100.00;99000.78;5000407;23;20054;-94
2022/09/17 08:52:01;;;;;;;3.10;0.60;;;;;;;10.56;100.00;98985.06;5003316;28;20049;-96
2022/09/17 08:54:42;;;;;;;3.08;0.70;;;;;;;10.64;100.00;98978.91;4985649;28;20089;-96
2022/09/17 08:57:11;;;;;;;3.55;0.60;;;;;;;10.59;100.00;98978.94;4986277;28;20034;-95
2022/09/17 08:59:58;;;;;;;3.55;0.60;;;;;;;10.41;100.00;98977.31;4992377;28;20041;-95
2022/09/17 09:02:31;;;;;;;1.77;0.52;;;;;;;10.61;100.00;98982.41;4991553;28;20030;-96
2022/09/17 09:05:29;;;;;;;3.90;0.65;;;;;;;10.71;100.00;98970.19;4988549;28;20061;-94
2022/09/17 09:08:13;;;;;;;2.28;0.60;;;;;;;10.85;100.00;98973.56;4967004;28;20049;-96
2022/09/17 09:10:49;;;;;;;3.25;0.63;;;;;;;10.65;100.00;98976.31;4986029;28;20403;-94
2022/09/17 09:13:19;;;;;;;5.20;0.57;;;;;;;10.66;100.00;98978.03;4998228;28;20536;-94
2022/09/17 09:15:52;;;;;;;4.10;0.68;;;;;;;10.72;100.00;98971.91;4990307;28;20050;-94
2022/09/17 09:18:29;;;;;;;3.47;0.85;;;;;;;10.63;100.00;98966.75;4978197;28;20025;-95
2022/09/17 09:21:17;;;;;;;3.78;0.70;;;;;;;10.79;100.00;98968.38;4991197;28;20069;-95
2022/09/17 09:23:45;;;;;;;4.93;0.75;;;;;;;10.59;100.00;98976.31;4975727;28;20539;-96
2022/09/17 09:26:17;;;;;;;2.63;0.68;;;;;;;10.94;100.00;98975.25;4989892;28;20046;-95
2022/09/17 09:29:04;;;;;;;3.13;0.60;;;;;;;11.03;100.00;98977.78;4994616;28;20093;-94
2022/09/17 09:31:39;;;;;;;3.35;0.70;;;;;;;11.19;100.00;98977.66;4989520;28;20030;-95
2022/09/17 09:34:04;;;;;;;3.88;0.80;;;;;;;11.36;100.00;98983.63;4978675;28;20031;-94
2022/09/17 09:36:32;;;;;;;4.03;0.70;;;;;;;11.47;100.00;98987.88;4993142;28;20530;-94
2022/09/17 09:39:11;;;;;;;3.08;0.70;;;;;;;11.31;100.00;98974.09;4992155;28;20026;-94
2022/09/17 09:41:48;;;;;;;3.13;0.60;;;;;;;11.33;100.00;98974.94;4989585;28;20034;-93
2022/09/17 09:44:15;;;;;;;1.25;0.40;;;;;;;11.51;100.00;98981.72;4985491;28;20039;-95
2022/09/17 09:46:59;;;;;;;5.30;0.90;;;;;;;11.42;100.00;98985.31;4988830;28;20022;-94
2022/09/17 09:50:02;;;;;;;3.70;0.82;;;;;;;11.63;100.00;98983.38;5005242;28;20113;-95
2022/09/17 09:53:04;;;;;;;3.50;0.90;;;;;;;12.19;100.00;98968.88;5000981;28;20074;-94
2022/09/17 09:56:09;;;;;;;2.45;0.65;;;;;;;12.55;100.00;98979.72;4989895;28;20030;-94
2022/09/17 09:58:37;;;;;;;3.28;0.85;;;;;;;13.79;100.00;98975.16;4984618;28;20053;-95
2022/09/17 10:01:11;;;;;;;3.42;0.80;;;;;;;14.02;100.00;98984.38;4983192;28;20595;-95
2022/09/17 10:03:40;;;;;;;6.07;0.80;;;;;;;13.78;99.89;98981.31;4987253;28;20037;-94
2022/09/17 10:06:08;;;;;;;5.20;0.90;;;;;;;13.24;100.00;98976.97;4984126;28;20034;-96
2022/09/17 10:08:41;;;;;;;5.03;0.98;;;;;;;13.72;98.71;98978.78;4988097;28;20034;-95
2022/09/17 10:11:12;;;;;;;4.13;0.90;;;;;;;14.00;100.00;98979.13;4987625;28;20033;-94
2022/09/17 10:13:41;;;;;;;4.13;1.00;;;;;;;13.55;98.59;98973.88;4993824;28;20064;-96
2022/09/17 10:16:23;;;;;;;5.88;0.90;;;;;;;13.56;100.00;98981.69;4989046;28;20030;-95
2022/09/17 10:18:50;;;;;;;5.45;0.80;;;;;;;13.28;100.00;98971.66;5002826;28;20032;-96
2022/09/17 10:21:28;;;;;;;4.50;1.02;;;;;;;13.35;100.00;98968.91;4986517;28;20034;-95
2022/09/17 10:23:54;;;;;;;3.30;0.77;;;;;;;13.80;100.00;98962.03;4986590;28;20034;-95
2022/09/17 10:26:31;;;;;;;5.07;0.90;;;;;;;13.38;100.00;98967.16;4989901;28;20034;-96
2022/09/17 10:29:11;;;;;;;4.95;1.08;;;;;;;13.19;100.00;98982.25;4988789;28;20116;-96
2022/09/17 10:31:54;;;;;;;4.50;0.75;;;;;;;12.55;100.00;98987.56;4978331;28;20037;-96
2022/09/17 10:34:27;;;;;;;2.58;0.85;;;;;;;12.75;100.00;98968.13;4987103;28;20783;-94
2022/09/17 10:36:57;;;;;;;3.10;0.73;;;;;;;13.06;100.00;98980.75;4993749;28;20065;-93
2022/09/17 10:39:25;;;;;;;3.08;0.82;;;;;;;13.22;100.00;98977.00;4984366;28;20034;-93
2022/09/17 10:41:58;;;;;;;4.63;0.80;;;;;;;13.58;100.00;98974.66;4985801;28;20030;-93
2022/09/17 10:44:27;;;;;;;3.75;0.60;;;;;;;13.57;100.00;98965.09;4973217;28;20553;-93
2022/09/17 10:46:54;;;;;;;3.42;0.90;;;;;;;13.37;100.00;98972.44;4989207;28;20098;-94
2022/09/17 10:49:32;;;;;;;3.78;0.80;;;;;;;13.36;100.00;98982.03;4989410;28;20042;-94
2022/09/17 10:52:17;;;;;;;2.60;0.70;;;;;;;13.51;100.00;98974.81;4996511;28;20045;-96
2022/09/17 10:55:01;;;;;;;4.97;0.70;;;;;;;13.64;100.00;98981.56;4976863;28;20516;-93
2022/09/17 10:57:55;;;;;;;2.97;0.70;;;;;;;13.92;100.00;98975.81;4990140;28;20652;-93
2022/09/17 11:00:22;;;;;;;3.50;0.95;;;;;;;13.62;100.00;98976.31;4991270;28;20038;-95
2022/09/17 11:03:25;;;;;;;5.15;1.20;;;;;;;13.52;100.00;98979.16;4999620;28;20038;-93
2022/09/17 11:06:21;;;;;;;4.53;0.95;;;;;;;13.37;100.00;98978.50;4986640;28;20022;-95
2022/09/17 11:08:58;;;;;;;4.70;1.13;;;;;;;13.67;100.00;98973.66;4993499;28;20105;-96
2022/09/17 11:11:48;;;;;;;5.05;1.20;;;;;;;13.59;100.00;98968.53;4991280;28;20034;-95
2022/09/17 11:14:36;;;;;;;3.92;1.10;;;;;;;13.57;100.00;98969.44;4984843;28;20054;-95
2022/09/17 11:17:20;;;;;;;3.38;0.90;;;;;;;13.74;100.00;98961.28;5005891;28;20031;-95
2022/09/17 11:19:57;;;;;;;2.95;0.77;;;;;;;13.56;100.00;98967.75;4998194;28;20038;-94
2022/09/17 11:22:53;;;;;;;4.55;0.90;;;;;;;13.82;100.00;98959.41;4995728;28;20022;-93
2022/09/17 11:25:54;;;;;;;4.00;0.85;;;;;;;14.05;99.29;98966.78;4995125;28;20031;-94
2022/09/17 11:28:38;;;;;;;3.85;0.98;;;;;;;13.22;100.00;98957.78;4990411;28;20026;-95
2022/09/17 11:31:31;;;;;;;3.40;0.88;;;;;;;13.22;100.00;98956.06;5008370;28;21754;-96
2022/09/17 11:33:56;;;;;;;4.53;1.00;;;;;;;13.29;100.00;98949.81;4983054;28;20092;-95
2022/09/17 11:36:28;;;;;;;3.75;0.90;;;;;;;13.25;100.00;98971.72;4984928;28;20030;-94
2022/09/17 11:39:08;;;;;;;3.35;0.80;;;;;;;13.57;100.00;98954.59;4994798;28;20023;-95
2022/09/17 11:41:43;;;;;;;3.97;0.80;;;;;;;13.43;100.00;98948.72;4994226;28;20113;-94
2022/09/17 11:44:30;;;;;;;3.58;0.80;;;;;;;13.57;100.00;98938.88;4986793;28;20574;-95
2022/09/17 11:47:08;;;;;;;5.97;1.10;;;;;;;13.35;100.00;98941.03;4992299;28;20062;-95
2022/09/17 11:49:40;;;;;;;5.70;1.05;;;;;;;13.37;100.00;98948.84;4993983;28;20097;-94
2022/09/17 11:52:24;;;;;;;4.97;1.25;;;;;;;13.51;100.00;98938.13;4994464;28;20034;-95
2022/09/17 11:54:50;;;;;;;2.50;0.65;;;;;;;13.72;100.00;98942.94;4995750;28;20029;-95
2022/09/17 11:57:18;;;;;;;3.40;0.90;;;;;;;13.76;100.00;98949.88;4995507;28;20398;-95